Time;durP1;ratioP1;P1;durP2;ratioP2;P2;SDS_P1;SDS_P2;PMS_P1;PMS_P2;Temp;Humidity;BMP_temperature;BMP_pressure;BME280_temperature;BME280_humidity;BME280_pressure;Samples;Min_cycle;Max_cycle;Signal;HPM_P1;HPM_P2
2022/01/19 00:01:10;;;;;;;40.20;20.30;;;4.30;66.50;;;;;;4996365;28;20053;-73
2022/01/19 00:03:36;;;;;;;38.07;20.33;;;4.30;66.50;;;;;;4996186;28;20026;-72
2022/01/19 00:06:01;;;;;;;35.70;21.47;;;4.20;66.50;;;;;;4995970;28;20102;-72
2022/01/19 00:08:28;;;;;;;38.00;20.57;;;4.20;66.50;;;;;;4995957;28;20026;-72
2022/01/19 00:10:54;;;;;;;36.10;20.37;;;4.20;66.30;;;;;;4995929;28;20026;-72
2022/01/19 00:13:20;;;;;;;29.57;19.17;;;4.20;66.70;;;;;;4995985;28;20043;-72
2022/01/19 00:15:47;;;;;;;32.30;18.50;;;4.20;67.00;;;;;;4995666;28;20014;-72
2022/01/19 00:18:16;;;;;;;29.23;17.33;;;4.10;66.70;;;;;;4996204;28;20037;-72
2022/01/19 00:20:41;;;;;;;26.20;16.60;;;4.10;66.70;;;;;;4995701;28;20149;-72
2022/01/19 00:23:09;;;;;;;27.37;16.00;;;4.10;66.50;;;;;;4995953;28;20510;-72
2022/01/19 00:25:37;;;;;;;26.17;15.10;;;4.10;66.40;;;;;;4996021;28;20109;-72
2022/01/19 00:28:03;;;;;;;24.47;14.70;;;4.10;66.60;;;;;;4995942;28;20395;-72
2022/01/19 00:30:29;;;;;;;25.13;14.13;;;4.10;66.60;;;;;;4995763;28;20336;-72
2022/01/19 00:32:54;;;;;;;22.53;12.97;;;4.10;66.80;;;;;;4995694;28;20034;-73
2022/01/19 00:35:20;;;;;;;22.63;12.47;;;4.10;67.10;;;;;;4995501;28;20149;-72
2022/01/19 00:37:46;;;;;;;21.83;12.93;;;4.10;66.90;;;;;;4995712;28;20031;-72
2022/01/19 00:40:14;;;;;;;22.67;13.77;;;4.00;67.00;;;;;;4995643;28;20030;-72
2022/01/19 00:42:44;;;;;;;21.50;13.23;;;4.00;67.10;;;;;;4995651;28;20022;-73
2022/01/19 00:45:11;;;;;;;35.27;19.63;;;4.00;67.10;;;;;;4995153;28;20034;-72
2022/01/19 00:47:37;;;;;;;34.20;18.57;;;4.10;66.80;;;;;;4995390;28;20507;-72
2022/01/19 00:50:05;;;;;;;29.53;18.30;;;4.10;65.90;;;;;;4995262;28;20109;-72
2022/01/19 00:52:30;;;;;;;34.67;18.53;;;4.00;65.90;;;;;;4995212;28;20022;-72
2022/01/19 00:54:56;;;;;;;29.80;18.33;;;4.00;65.90;;;;;;4995371;28;20034;-73
2022/01/19 00:57:22;;;;;;;30.63;18.10;;;3.90;66.00;;;;;;4995296;28;20498;-73
2022/01/19 00:59:47;;;;;;;31.10;18.90;;;3.90;66.00;;;;;;4995088;28;20026;-72
2022/01/19 01:02:13;;;;;;;28.10;17.13;;;3.90;65.90;;;;;;4994928;28;20026;-72
2022/01/19 01:04:39;;;;;;;28.87;17.33;;;3.80;66.10;;;;;;4994986;28;20026;-72
2022/01/19 01:07:05;;;;;;;27.07;16.90;;;3.70;66.50;;;;;;4994876;28;20068;-72
2022/01/19 01:09:30;;;;;;;27.37;16.67;;;3.70;66.40;;;;;;4994939;28;20026;-72
2022/01/19 01:12:10;;;;;;;35.50;17.50;;;3.70;66.70;;;;;;4994941;28;20058;-72
2022/01/19 01:20:07;;;;;;;29.90;17.70;;;3.50;66.80;;;;;;4994866;28;20081;-72
2022/01/19 01:22:34;;;;;;;33.53;18.20;;;3.50;66.90;;;;;;4994878;28;20030;-72
2022/01/19 01:25:00;;;;;;;31.03;17.83;;;3.50;67.10;;;;;;4993288;28;20486;-72
2022/01/19 01:27:26;;;;;;;30.20;18.60;;;3.40;67.30;;;;;;5009607;28;20419;-71
2022/01/19 01:29:51;;;;;;;42.70;19.10;;;3.40;67.70;;;;;;4994652;28;20030;-72
2022/01/19 01:32:17;;;;;;;32.17;18.33;;;3.40;67.70;;;;;;4994400;28;20084;-72
2022/01/19 01:34:43;;;;;;;34.33;18.87;;;3.40;67.50;;;;;;4994490;28;20137;-72
2022/01/19 01:37:09;;;;;;;32.70;17.87;;;3.40;67.60;;;;;;4994153;28;20114;-72
2022/01/19 01:39:35;;;;;;;30.87;18.27;;;3.40;67.90;;;;;;4994416;28;20038;-73
2022/01/19 01:42:07;;;;;;;26.63;17.60;;;3.40;68.00;;;;;;4994265;28;20034;-72
2022/01/19 01:44:37;;;;;;;26.10;16.73;;;3.40;68.20;;;;;;4994204;28;20049;-72
2022/01/19 01:47:03;;;;;;;31.13;17.77;;;3.40;67.90;;;;;;4994263;28;20057;-72
2022/01/19 01:49:44;;;;;;;34.93;17.73;;;3.40;67.90;;;;;;4994123;28;20030;-72
2022/01/19 01:54:55;;;;;;;28.90;16.53;;;3.40;68.20;;;;;;4994225;28;20065;-72
2022/01/19 01:57:21;;;;;;;27.97;16.53;;;3.50;68.50;;;;;;4992951;28;20126;-72
2022/01/19 01:59:47;;;;;;;30.13;16.97;;;3.50;68.10;;;;;;4991099;28;20109;-72
2022/01/19 02:02:14;;;;;;;29.27;16.13;;;3.50;68.20;;;;;;4991293;28;20034;-72
2022/01/19 02:04:41;;;;;;;27.63;16.83;;;3.50;68.20;;;;;;4992362;28;20058;-73
2022/01/19 02:07:40;;;;;;;28.40;16.37;;;3.50;68.30;;;;;;5008760;28;20372;-72
2022/01/19 02:10:08;;;;;;;27.73;16.27;;;3.40;68.60;;;;;;4993996;28;20034;-72
2022/01/19 02:23:38;;;;;;;25.20;14.60;;;3.60;68.30;;;;;;4993964;28;20041;-72
2022/01/19 02:26:10;;;;;;;27.37;16.20;;;3.60;68.70;;;;;;4993800;28;20387;-72
2022/01/19 02:42:43;;;;;;;18.97;11.90;;;3.70;68.40;;;;;;4993560;28;20088;-72
2022/01/19 02:50:26;;;;;;;20.93;12.47;;;3.60;68.90;;;;;;4993513;28;20038;-72
2022/01/19 02:52:51;;;;;;;20.93;12.43;;;3.60;69.30;;;;;;4993343;28;20029;-72
2022/01/19 02:55:17;;;;;;;22.03;12.37;;;3.60;69.20;;;;;;4993227;28;20676;-72
2022/01/19 02:57:45;;;;;;;18.57;10.87;;;3.50;69.10;;;;;;4993208;28;20045;-73
2022/01/19 03:11:08;;;;;;;20.67;11.70;;;3.60;69.60;;;;;;4997375;28;20035;-72
2022/01/19 03:13:34;;;;;;;16.30;10.57;;;3.60;69.90;;;;;;4997238;28;20030;-72
2022/01/19 03:16:00;;;;;;;16.17;8.80;;;3.60;70.10;;;;;;4997062;28;20037;-72
2022/01/19 03:18:25;;;;;;;16.37;8.67;;;3.60;70.60;;;;;;4997198;28;20030;-72
2022/01/19 03:20:51;;;;;;;15.90;8.37;;;3.60;70.80;;;;;;4996908;28;20041;-72
2022/01/19 03:23:20;;;;;;;14.67;8.63;;;3.70;71.30;;;;;;4996741;28;20030;-72
2022/01/19 03:25:47;;;;;;;17.73;10.20;;;3.70;71.40;;;;;;4996801;28;20483;-72
2022/01/19 03:28:13;;;;;;;19.87;11.13;;;3.80;71.40;;;;;;4996745;28;20472;-72
2022/01/19 03:30:38;;;;;;;16.40;10.40;;;3.80;70.30;;;;;;4996574;28;20072;-74
2022/01/19 03:33:04;;;;;;;20.60;11.80;;;3.90;69.70;;;;;;4996860;28;20030;-72
2022/01/19 03:35:30;;;;;;;18.97;11.27;;;3.90;69.40;;;;;;4996531;28;20407;-73
2022/01/19 03:37:56;;;;;;;20.50;11.10;;;3.90;68.80;;;;;;4996698;28;20080;-72
2022/01/19 03:40:22;;;;;;;15.60;10.47;;;3.80;69.20;;;;;;4996671;28;20033;-72
2022/01/19 03:42:48;;;;;;;20.70;11.23;;;3.70;69.30;;;;;;4996609;28;20034;-72
2022/01/19 03:45:14;;;;;;;17.47;10.47;;;3.70;69.50;;;;;;4996547;28;20049;-72
2022/01/19 03:47:44;;;;;;;20.10;11.00;;;3.60;69.50;;;;;;4996701;28;20026;-72
2022/01/19 03:50:10;;;;;;;15.83;9.90;;;3.60;69.40;;;;;;4996498;28;20574;-72
2022/01/19 03:52:36;;;;;;;19.33;11.20;;;3.60;69.50;;;;;;4996311;28;20113;-72
2022/01/19 03:55:02;;;;;;;20.40;10.47;;;3.60;69.50;;;;;;4996287;28;20030;-72
2022/01/19 03:57:28;;;;;;;18.70;10.80;;;3.60;69.40;;;;;;4996356;28;20177;-73
2022/01/19 03:59:54;;;;;;;20.87;11.20;;;3.60;69.50;;;;;;4996448;28;20471;-72
2022/01/19 04:02:19;;;;;;;22.67;11.23;;;3.60;69.30;;;;;;4996058;28;20041;-73
2022/01/19 04:05:04;;;;;;;18.70;11.37;;;3.60;69.20;;;;;;4996419;28;20031;-72
2022/01/19 04:07:30;;;;;;;24.20;12.10;;;3.50;69.40;;;;;;4995946;28;20031;-72
2022/01/19 04:09:56;;;;;;;21.53;11.33;;;3.50;69.70;;;;;;4996443;28;20024;-72
2022/01/19 04:12:41;;;;;;;19.40;11.43;;;3.50;69.70;;;;;;4996335;28;20029;-72
2022/01/19 04:15:08;;;;;;;17.97;10.63;;;3.40;69.60;;;;;;4995946;28;20042;-72
2022/01/19 04:17:35;;;;;;;18.47;11.40;;;3.40;69.90;;;;;;4996453;28;20042;-72
2022/01/19 04:20:01;;;;;;;18.00;10.37;;;3.40;70.00;;;;;;4995269;28;20062;-73
2022/01/19 04:22:26;;;;;;;17.40;10.90;;;3.40;70.00;;;;;;4996096;28;20058;-72
2022/01/19 04:24:52;;;;;;;17.30;10.00;;;3.30;70.10;;;;;;4995784;28;20031;-72
2022/01/19 04:30:01;;;;;;;16.07;9.63;;;3.30;70.20;;;;;;4995960;28;20035;-73
2022/01/19 04:35:03;;;;;;;16.80;9.77;;;3.20;70.30;;;;;;4995691;28;20130;-72
2022/01/19 04:54:12;;;;;;;17.97;10.23;;;3.20;70.30;;;;;;4995526;28;20053;-73
2022/01/19 05:05:15;;;;;;;19.80;9.00;;;3.10;71.20;;;;;;4995167;28;20022;-72
2022/01/19 05:07:55;;;;;;;15.80;9.50;;;3.10;71.10;;;;;;4994983;28;20375;-72
2022/01/19 05:13:26;;;;;;;19.00;8.37;;;3.10;71.30;;;;;;4995033;28;20037;-72
2022/01/19 05:15:52;;;;;;;20.67;8.27;;;3.10;71.40;;;;;;4994932;28;20026;-72
2022/01/19 05:18:18;;;;;;;14.67;8.87;;;3.10;71.50;;;;;;4994897;28;20368;-72
2022/01/19 05:20:45;;;;;;;17.13;9.07;;;3.10;71.80;;;;;;4994688;28;20030;-72
2022/01/19 05:23:11;;;;;;;16.03;8.57;;;3.10;71.60;;;;;;4994834;28;20105;-72
2022/01/19 05:25:37;;;;;;;16.30;9.47;;;3.20;71.40;;;;;;4994866;28;20111;-72
2022/01/19 05:28:04;;;;;;;15.93;9.67;;;3.10;71.10;;;;;;4994946;28;20383;-72
2022/01/19 05:30:30;;;;;;;16.70;9.73;;;3.10;71.00;;;;;;4994582;28;20064;-72
2022/01/19 05:32:55;;;;;;;14.40;8.80;;;3.10;71.10;;;;;;4994790;28;20065;-73
2022/01/19 05:35:21;;;;;;;15.00;9.17;;;3.10;71.20;;;;;;4994339;28;20384;-72
2022/01/19 05:37:47;;;;;;;14.50;8.70;;;3.10;71.40;;;;;;4994375;28;20487;-72
2022/01/19 05:40:16;;;;;;;19.47;8.80;;;3.10;71.50;;;;;;5009677;28;20124;-72
2022/01/19 05:42:42;;;;;;;15.43;8.73;;;3.10;71.50;;;;;;4994297;28;20491;-73
2022/01/19 05:45:09;;;;;;;13.00;8.47;;;3.10;70.90;;;;;;4994298;28;20022;-72
2022/01/19 05:47:34;;;;;;;15.77;9.00;;;3.00;70.90;;;;;;4994336;28;20049;-72
2022/01/19 05:50:01;;;;;;;14.90;9.00;;;3.00;71.10;;;;;;4994356;28;20467;-72
2022/01/19 05:52:27;;;;;;;26.90;9.07;;;3.00;71.20;;;;;;4994122;28;20166;-72
2022/01/19 05:54:52;;;;;;;19.63;8.67;;;3.00;71.20;;;;;;4994145;28;20523;-72
2022/01/19 05:57:18;;;;;;;19.27;9.33;;;2.90;71.30;;;;;;4994235;28;20038;-72
2022/01/19 05:59:44;;;;;;;18.17;9.30;;;2.90;71.60;;;;;;4993003;28;20387;-72
2022/01/19 06:02:10;;;;;;;14.47;8.63;;;2.90;71.60;;;;;;4994597;28;20463;-72
2022/01/19 06:04:35;;;;;;;20.10;9.33;;;2.90;71.70;;;;;;4993909;28;20038;-72
2022/01/19 06:07:03;;;;;;;15.43;8.87;;;2.90;71.70;;;;;;4994084;28;20105;-72
2022/01/19 06:09:37;;;;;;;19.07;9.63;;;2.90;71.50;;;;;;4994074;28;20162;-72
2022/01/19 06:12:08;;;;;;;18.97;10.30;;;2.80;71.50;;;;;;4993610;28;20042;-72
2022/01/19 06:14:35;;;;;;;25.57;12.10;;;2.90;71.70;;;;;;4993970;28;20029;-73
2022/01/19 06:17:02;;;;;;;19.17;10.63;;;2.90;71.80;;;;;;4994132;28;20157;-73
2022/01/19 06:19:28;;;;;;;24.43;11.97;;;2.90;72.10;;;;;;4993797;28;20030;-72
2022/01/19 06:21:54;;;;;;;21.70;13.07;;;2.90;72.20;;;;;;4994174;28;20037;-72
2022/01/19 06:24:20;;;;;;;31.70;12.03;;;3.00;71.80;;;;;;4993893;28;20030;-72
2022/01/19 06:26:46;;;;;;;28.53;12.83;;;3.00;71.70;;;;;;4993770;28;20037;-71
2022/01/19 06:29:11;;;;;;;23.17;11.17;;;3.00;71.90;;;;;;4993674;28;20093;-73
2022/01/19 06:31:37;;;;;;;19.80;10.63;;;2.90;72.20;;;;;;4993827;28;20475;-72
2022/01/19 06:34:03;;;;;;;24.57;11.27;;;2.90;72.50;;;;;;4993713;28;20033;-73
2022/01/19 06:36:29;;;;;;;23.10;10.73;;;2.90;72.90;;;;;;4993531;28;20150;-72
2022/01/19 06:38:54;;;;;;;23.33;10.10;;;2.90;73.20;;;;;;4993447;28;20067;-72
2022/01/19 06:41:20;;;;;;;17.33;9.80;;;2.80;73.40;;;;;;4993492;28;20026;-72
2022/01/19 06:43:46;;;;;;;14.57;9.23;;;2.80;73.40;;;;;;4998507;28;20018;-73
2022/01/19 06:46:11;;;;;;;17.10;9.90;;;2.80;73.60;;;;;;5000175;28;20379;-72
2022/01/19 06:48:37;;;;;;;21.40;10.50;;;2.80;73.50;;;;;;5000226;28;20105;-72
2022/01/19 06:51:03;;;;;;;19.67;11.93;;;2.80;73.60;;;;;;5000028;28;20045;-73
2022/01/19 06:53:29;;;;;;;27.33;12.70;;;2.80;73.60;;;;;;5000450;28;20030;-72
2022/01/19 06:55:57;;;;;;;24.10;12.73;;;2.80;73.70;;;;;;4999797;28;20030;-72
2022/01/19 06:58:23;;;;;;;21.13;11.63;;;2.80;73.50;;;;;;4999615;28;20034;-73
2022/01/19 07:00:49;;;;;;;22.97;12.10;;;2.80;73.50;;;;;;5000033;28;20459;-72
2022/01/19 07:03:15;;;;;;;27.07;11.27;;;;;;;;;;5000087;28;20077;-71
2022/01/19 07:05:42;;;;;;;21.27;11.03;;;;;;;;;;4999951;28;20468;-73
2022/01/19 07:08:08;;;;;;;24.03;11.40;;;;;;;;;;4999940;28;20034;-76
2022/01/19 07:10:33;;;;;;;18.63;10.47;;;2.80;73.60;;;;;;5000114;28;20085;-75
2022/01/19 07:13:00;;;;;;;18.67;10.87;;;2.80;74.20;;;;;;5000042;28;20038;-72
2022/01/19 07:15:26;;;;;;;19.50;11.77;;;2.90;74.00;;;;;;4999965;28;20034;-74
2022/01/19 07:17:52;;;;;;;18.20;10.00;;;3.00;73.80;;;;;;4999873;28;20092;-76
2022/01/19 07:20:17;;;;;;;20.43;10.63;;;3.10;73.60;;;;;;4999217;28;20034;-75
2022/01/19 07:22:43;;;;;;;15.97;10.27;;;3.20;73.50;;;;;;4998430;28;20084;-72
2022/01/19 07:25:09;;;;;;;24.77;10.30;;;3.20;73.10;;;;;;4999157;28;20038;-73
2022/01/19 07:27:35;;;;;;;21.47;9.80;;;3.30;72.60;;;;;;4999136;28;20117;-78
2022/01/19 07:30:03;;;;;;;20.63;9.77;;;3.30;72.20;;;;;;5017579;28;20125;-73
2022/01/19 07:32:33;;;;;;;22.77;11.30;;;3.40;72.30;;;;;;5018548;28;20057;-80
2022/01/19 07:35:01;;;;;;;20.00;11.13;;;3.40;71.80;;;;;;5018498;28;20061;-70
2022/01/19 07:37:26;;;;;;;23.03;11.70;;;3.40;71.70;;;;;;5018974;28;20034;-71
2022/01/19 07:39:53;;;;;;;21.00;11.77;;;3.40;72.10;;;;;;5018851;28;20033;-72
2022/01/19 07:42:19;;;;;;;28.27;11.90;;;3.40;72.10;;;;;;4999166;28;20109;-75
2022/01/19 07:44:45;;;;;;;21.93;10.87;;;3.40;72.40;;;;;;4999391;28;20049;-75
2022/01/19 07:47:11;;;;;;;24.70;10.87;;;3.50;72.70;;;;;;4999210;28;20030;-74
2022/01/19 07:49:37;;;;;;;24.97;11.23;;;3.50;72.80;;;;;;5001705;28;20034;-77
2022/01/19 07:52:03;;;;;;;19.13;10.83;;;3.60;72.40;;;;;;5006613;28;20034;-73
2022/01/19 07:54:29;;;;;;;19.87;10.60;;;3.70;72.00;;;;;;5001206;28;20037;-76
2022/01/19 07:56:54;;;;;;;18.67;10.97;;;3.80;71.70;;;;;;4994527;28;20395;-75
2022/01/19 07:59:23;;;;;;;20.13;10.27;;;3.80;71.70;;;;;;4958922;28;20055;-74
2022/01/19 08:01:49;;;;;;;19.00;9.93;;;3.80;72.10;;;;;;4976691;28;20050;-74
2022/01/19 08:04:15;;;;;;;21.30;10.20;;;3.90;71.80;;;;;;4976331;28;20438;-75
2022/01/19 08:06:41;;;;;;;20.93;10.87;;;4.00;71.70;;;;;;4976584;28;20030;-74
2022/01/19 08:09:07;;;;;;;19.30;10.07;;;4.00;71.90;;;;;;4976793;28;20374;-75
2022/01/19 08:11:33;;;;;;;23.57;10.40;;;4.00;71.80;;;;;;4975960;28;20514;-72
2022/01/19 08:13:59;;;;;;;19.57;10.60;;;4.00;71.80;;;;;;4976116;28;20030;-73
2022/01/19 08:16:25;;;;;;;18.83;10.87;;;4.10;71.70;;;;;;4976395;28;20586;-76
2022/01/19 08:18:51;;;;;;;27.60;11.50;;;4.10;72.20;;;;;;4976530;28;20070;-74
2022/01/19 08:21:16;;;;;;;20.73;11.00;;;4.10;72.20;;;;;;4991648;28;20058;-74
2022/01/19 08:23:42;;;;;;;21.37;10.60;;;4.10;72.00;;;;;;4976540;28;20035;-75
2022/01/19 08:26:13;;;;;;;21.60;10.57;;;4.10;71.90;;;;;;4976362;28;20038;-73
2022/01/19 08:28:39;;;;;;;19.00;11.90;;;4.20;72.00;;;;;;4976563;28;20019;-73
2022/01/19 08:31:05;;;;;;;25.30;11.80;;;4.20;72.10;;;;;;4976385;28;20471;-75
2022/01/19 08:33:30;;;;;;;23.27;12.30;;;4.20;72.10;;;;;;4976170;28;20031;-78
2022/01/19 08:35:56;;;;;;;19.73;12.53;;;4.20;72.10;;;;;;4975621;28;20058;-80
2022/01/19 08:38:22;;;;;;;22.80;12.83;;;4.30;71.90;;;;;;4976093;28;20391;-80
2022/01/19 08:40:48;;;;;;;24.77;12.10;;;4.40;71.70;;;;;;4976213;28;20027;-80
2022/01/19 08:43:14;;;;;;;23.90;13.20;;;4.40;71.90;;;;;;4976053;28;20479;-78
2022/01/19 08:45:40;;;;;;;27.57;14.57;;;4.50;71.90;;;;;;4976023;28;20031;-79
2022/01/19 08:48:06;;;;;;;26.60;14.20;;;4.50;71.50;;;;;;4976230;28;20029;-80
2022/01/19 08:50:32;;;;;;;26.20;14.03;;;4.60;71.40;;;;;;4976182;28;20383;-79
2022/01/19 08:52:58;;;;;;;34.73;15.47;;;4.60;71.10;;;;;;4975646;28;20110;-77
2022/01/19 08:55:23;;;;;;;22.63;13.43;;;4.60;71.50;;;;;;4975612;28;20035;-76
2022/01/19 08:57:51;;;;;;;23.50;13.07;;;4.60;71.70;;;;;;4975429;28;20388;-74
2022/01/19 09:00:18;;;;;;;23.47;13.63;;;4.60;71.50;;;;;;4975618;28;20049;-75
2022/01/19 09:02:44;;;;;;;22.37;14.00;;;4.60;71.60;;;;;;4975660;28;20506;-78
2022/01/19 09:05:10;;;;;;;27.73;14.67;;;4.60;71.70;;;;;;4974899;28;20027;-77
2022/01/19 09:07:36;;;;;;;28.73;17.03;;;4.70;71.70;;;;;;4975454;28;20031;-77
2022/01/19 09:10:05;;;;;;;37.33;18.57;;;4.70;71.80;;;;;;4975586;28;20384;-78
2022/01/19 09:12:30;;;;;;;31.73;17.57;;;4.80;71.80;;;;;;4975407;28;20042;-78
2022/01/19 09:14:57;;;;;;;38.27;19.03;;;4.80;71.50;;;;;;4975093;28;20019;-79
2022/01/19 09:17:23;;;;;;;28.47;18.03;;;4.90;71.60;;;;;;4975430;28;20050;-79
2022/01/19 09:19:48;;;;;;;30.40;17.63;;;4.90;71.50;;;;;;4975498;28;20023;-80
2022/01/19 09:22:14;;;;;;;34.23;18.70;;;5.00;72.50;;;;;;4975519;28;20031;-78
2022/01/19 09:24:42;;;;;;;28.17;17.37;;;5.10;72.30;;;;;;4975177;28;20026;-78
2022/01/19 09:27:08;;;;;;;26.20;15.37;;;5.10;72.20;;;;;;4974902;28;20050;-77
2022/01/19 09:29:38;;;;;;;26.60;15.00;;;5.20;71.80;;;;;;4975030;28;20444;-79
2022/01/19 09:32:08;;;;;;;30.03;15.13;;;5.20;71.70;;;;;;4974912;28;20019;-78
2022/01/19 09:34:34;;;;;;;29.43;15.77;;;5.30;71.70;;;;;;4974909;28;20026;-79
2022/01/19 09:37:00;;;;;;;29.20;16.33;;;5.30;71.90;;;;;;4975574;28;20045;-79
2022/01/19 09:39:27;;;;;;;27.37;14.47;;;5.30;72.10;;;;;;4975233;28;20109;-78
2022/01/19 09:41:54;;;;;;;25.03;14.30;;;5.40;72.00;;;;;;4974920;28;20027;-80
2022/01/19 09:44:23;;;;;;;25.83;15.00;;;5.40;72.10;;;;;;4974651;28;20031;-83
2022/01/19 09:46:49;;;;;;;26.77;16.30;;;5.40;72.50;;;;;;4974872;28;20027;-80
2022/01/19 09:49:17;;;;;;;27.13;14.57;;;5.50;71.70;;;;;;4975034;28;20480;-82
2022/01/19 09:51:45;;;;;;;27.43;14.57;;;5.60;72.10;;;;;;4974689;28;20070;-80
2022/01/19 09:54:16;;;;;;;22.03;13.53;;;5.70;71.90;;;;;;4974927;28;20061;-79
2022/01/19 09:56:42;;;;;;;22.20;12.50;;;5.80;71.70;;;;;;4974618;28;20034;-72
2022/01/19 09:59:08;;;;;;;20.20;12.20;;;5.90;71.40;;;;;;4974793;28;20515;-72
2022/01/19 10:01:34;;;;;;;23.97;12.40;;;5.90;70.90;;;;;;4974786;28;20031;-71
2022/01/19 10:04:19;;;;;;;22.73;11.17;;;6.00;70.80;;;;;;4974447;28;20560;-71
2022/01/19 10:06:45;;;;;;;17.63;11.87;;;6.10;70.60;;;;;;4974834;28;20476;-71
2022/01/19 10:09:10;;;;;;;22.40;12.07;;;6.20;70.20;;;;;;4974694;28;20019;-71
2022/01/19 10:17:10;;;;;;;18.93;12.37;;;6.50;69.70;;;;;;4973917;28;20402;-72
2022/01/19 10:19:50;;;;;;;20.37;12.67;;;6.50;69.70;;;;;;4974525;28;20026;-76
2022/01/19 10:22:25;;;;;;;24.03;12.43;;;6.60;69.80;;;;;;4974354;28;20031;-77
2022/01/19 10:25:03;;;;;;;26.83;12.00;;;6.80;69.70;;;;;;4974332;28;20027;-76
2022/01/19 10:27:43;;;;;;;21.93;11.70;;;6.90;69.20;;;;;;4974327;28;20033;-76
2022/01/19 10:30:08;;;;;;;17.70;10.83;;;7.00;68.90;;;;;;4974279;28;20027;-76
2022/01/19 10:32:41;;;;;;;18.07;11.37;;;7.00;68.30;;;;;;4974194;28;20547;-76
2022/01/19 10:35:30;;;;;;;20.15;12.00;;;7.00;68.20;;;;;;4973856;28;20455;-76
2022/01/19 10:38:11;;;;;;;17.60;11.40;;;7.10;68.50;;;;;;4974379;28;20107;-77
2022/01/19 10:40:39;;;;;;;21.43;10.97;;;7.10;67.80;;;;;;4973323;28;20030;-76
2022/01/19 10:43:46;;;;;;;18.03;10.93;;;7.10;68.50;;;;;;4973788;28;20079;-76
2022/01/19 10:46:29;;;;;;;25.20;12.43;;;7.20;68.00;;;;;;4933579;29;20031;-76
2022/01/19 10:49:00;;;;;;;22.30;12.23;;;7.30;67.70;;;;;;4933714;29;20035;-77
2022/01/19 10:51:31;;;;;;;23.67;11.60;;;7.30;67.50;;;;;;4959510;28;20043;-76
2022/01/19 10:54:31;;;;;;;24.17;11.70;;;7.40;67.40;;;;;;4973979;28;20027;-77
2022/01/19 10:56:58;;;;;;;19.77;11.40;;;7.40;67.50;;;;;;4962488;28;20431;-76
2022/01/19 10:59:30;;;;;;;21.47;11.10;;;7.50;67.00;;;;;;4973806;28;20026;-76
2022/01/19 11:01:58;;;;;;;22.47;10.70;;;7.50;66.70;;;;;;4974129;28;20084;-76
2022/01/19 11:04:25;;;;;;;14.57;9.73;;;7.60;66.70;;;;;;4973987;28;20080;-74
2022/01/19 11:07:09;;;;;;;17.40;10.80;;;7.60;66.70;;;;;;4973982;28;20027;-76
2022/01/19 11:09:45;;;;;;;17.60;11.53;;;7.60;66.70;;;;;;4973913;28;20027;-77
2022/01/19 11:12:16;;;;;;;21.93;12.23;;;7.60;66.80;;;;;;4974239;28;20034;-76
2022/01/19 11:14:43;;;;;;;19.20;11.80;;;7.70;67.20;;;;;;4973970;28;20023;-77
2022/01/19 11:17:09;;;;;;;15.80;10.70;;;7.80;67.00;;;;;;4973747;28;20039;-76
2022/01/19 11:19:40;;;;;;;12.67;8.67;;;7.80;67.00;;;;;;4974016;28;20031;-77
2022/01/19 11:22:12;;;;;;;16.97;9.60;;;7.90;67.20;;;;;;4973828;28;20395;-77
2022/01/19 11:24:49;;;;;;;15.82;9.60;;;8.00;67.00;;;;;;4973776;28;20027;-76
2022/01/19 11:27:15;;;;;;;12.67;8.57;;;8.10;66.70;;;;;;4973970;28;20038;-77
2022/01/19 11:29:41;;;;;;;18.60;8.77;;;8.10;66.60;;;;;;4976277;28;20062;-77
2022/01/19 11:32:20;;;;;;;14.57;8.53;;;8.20;66.60;;;;;;4977397;28;20035;-77
2022/01/19 11:34:50;;;;;;;12.33;7.53;;;8.30;66.40;;;;;;4977113;28;20034;-76
2022/01/19 11:37:37;;;;;;;9.93;6.57;;;8.30;66.10;;;;;;4977569;28;20058;-77
2022/01/19 11:40:13;;;;;;;11.27;7.23;;;8.40;65.80;;;;;;4974039;28;20093;-77
2022/01/19 11:42:40;;;;;;;12.87;7.87;;;8.50;65.70;;;;;;4977205;28;20033;-76
2022/01/19 11:45:09;;;;;;;10.73;7.27;;;8.50;65.40;;;;;;4977160;28;20027;-76
2022/01/19 11:47:35;;;;;;;11.07;6.97;;;8.50;65.00;;;;;;4977209;28;20443;-77
2022/01/19 11:50:06;;;;;;;15.90;7.87;;;8.60;65.10;;;;;;4976968;28;20034;-75
2022/01/19 11:52:36;;;;;;;12.67;7.93;;;8.60;65.10;;;;;;4977029;28;20035;-76
2022/01/19 11:55:12;;;;;;;19.40;7.93;;;8.70;65.20;;;;;;4976478;28;20019;-75
2022/01/19 11:57:38;;;;;;;10.40;7.40;;;8.80;65.30;;;;;;4976024;28;20043;-75
2022/01/19 12:00:19;;;;;;;11.83;7.13;;;8.90;65.20;;;;;;4977516;28;20085;-76
2022/01/19 12:02:56;;;;;;;13.17;6.70;;;8.90;64.70;;;;;;4977477;28;20102;-76
2022/01/19 12:05:26;;;;;;;15.77;7.93;;;8.90;64.80;;;;;;4977044;28;20023;-77
2022/01/19 12:07:55;;;;;;;13.83;7.90;;;8.90;64.80;;;;;;4976818;28;20470;-76
2022/01/19 12:10:30;;;;;;;13.47;8.07;;;8.90;65.00;;;;;;4976667;28;20085;-78
2022/01/19 12:16:13;;;;;;;16.33;8.67;;;8.90;66.50;;;;;;4976629;28;20395;-76
2022/01/19 12:18:49;;;;;;;16.57;9.50;;;9.00;66.80;;;;;;4976480;28;20479;-76
2022/01/19 12:21:32;;;;;;;14.10;8.60;;;9.00;66.30;;;;;;4976409;28;20023;-76
2022/01/19 12:24:21;;;;;;;13.20;8.85;;;9.10;66.00;;;;;;4976434;28;20498;-75
2022/01/19 12:26:50;;;;;;;15.60;9.13;;;9.10;66.40;;;;;;4976358;28;20043;-77
2022/01/19 12:29:34;;;;;;;17.27;9.40;;;9.20;67.50;;;;;;4976267;28;20031;-77
2022/01/19 12:32:17;;;;;;;12.43;8.87;;;9.20;68.00;;;;;;4976413;28;20042;-76
2022/01/19 12:34:46;;;;;;;15.90;8.20;;;9.30;68.60;;;;;;4976728;28;20030;-77
2022/01/19 12:37:14;;;;;;;12.73;8.37;;;9.30;68.60;;;;;;4976050;28;20035;-77
2022/01/19 12:39:45;;;;;;;16.63;8.27;;;9.30;68.80;;;;;;4976093;28;20488;-77
2022/01/19 12:42:25;;;;;;;10.10;7.33;;;9.30;68.60;;;;;;4975550;28;20126;-78
2022/01/19 12:44:54;;;;;;;16.90;7.87;;;9.20;69.00;;;;;;4976116;28;20526;-76
2022/01/19 12:47:28;;;;;;;16.47;8.43;;;9.20;68.80;;;;;;4976106;28;20113;-77
2022/01/19 12:50:09;;;;;;;15.70;9.00;;;9.20;70.70;;;;;;4976156;28;20591;-77
2022/01/19 12:52:41;;;;;;;20.47;9.67;;;9.30;71.90;;;;;;4975925;28;20031;-76
2022/01/19 12:55:19;;;;;;;13.48;9.55;;;9.40;72.40;;;;;;4975649;28;20070;-77
2022/01/19 12:57:47;;;;;;;15.40;10.00;;;9.40;72.40;;;;;;4975775;28;20031;-76
2022/01/19 13:00:16;;;;;;;16.53;9.67;;;9.50;72.40;;;;;;4975915;28;20379;-77
2022/01/19 13:02:42;;;;;;;20.27;10.93;;;9.60;72.90;;;;;;4975732;28;20042;-75
2022/01/19 13:05:12;;;;;;;18.93;10.77;;;9.60;72.30;;;;;;4975713;28;20388;-77
2022/01/19 13:07:43;;;;;;;18.00;10.10;;;9.60;71.90;;;;;;4975584;28;20100;-77
2022/01/19 13:10:19;;;;;;;17.13;10.10;;;9.70;71.40;;;;;;4990336;28;20030;-77
2022/01/19 13:13:05;;;;;;;16.47;10.43;;;9.70;71.30;;;;;;4975726;28;20055;-77
2022/01/19 13:15:49;;;;;;;18.67;10.57;;;9.80;71.30;;;;;;4975409;28;20025;-76
2022/01/19 13:18:32;;;;;;;18.20;11.37;;;9.80;71.10;;;;;;4975662;28;20407;-76
2022/01/19 13:21:02;;;;;;;18.90;11.63;;;9.80;70.70;;;;;;4975587;28;20023;-77
2022/01/19 13:23:29;;;;;;;18.17;10.50;;;9.80;70.50;;;;;;4975261;28;20117;-76
2022/01/19 13:26:01;;;;;;;17.23;9.80;;;9.80;70.20;;;;;;4975010;28;20476;-76
2022/01/19 13:28:30;;;;;;;17.30;10.38;;;9.80;70.00;;;;;;4975303;28;20026;-77
2022/01/19 13:31:08;;;;;;;16.07;10.30;;;9.90;69.70;;;;;;4975136;28;20476;-76
2022/01/19 13:33:33;;;;;;;16.33;10.50;;;9.90;70.20;;;;;;4975082;28;20380;-76
2022/01/19 13:36:00;;;;;;;17.93;10.37;;;9.90;70.50;;;;;;4974705;28;20083;-80
2022/01/19 13:38:29;;;;;;;15.63;8.70;;;9.90;70.80;;;;;;4971725;28;20468;-77
2022/01/19 13:41:06;;;;;;;22.07;9.43;;;9.90;70.40;;;;;;4986775;28;20405;-77
2022/01/19 13:43:34;;;;;;;18.07;9.50;;;9.90;69.70;;;;;;4973254;28;20034;-76
2022/01/19 13:46:12;;;;;;;11.87;8.70;;;9.90;69.90;;;;;;4974132;28;20058;-75
2022/01/19 13:48:39;;;;;;;11.97;8.70;;;9.80;69.80;;;;;;4974601;28;20377;-73
2022/01/19 13:51:09;;;;;;;14.73;8.73;;;9.80;70.10;;;;;;4974641;28;20106;-72
2022/01/19 13:53:37;;;;;;;12.17;8.90;;;9.70;70.30;;;;;;4973330;28;20026;-74
2022/01/19 13:56:14;;;;;;;15.60;8.80;;;9.60;70.40;;;;;;4974206;28;20019;-73
2022/01/19 13:59:03;;;;;;;12.83;8.80;;;9.50;70.50;;;;;;4974560;28;20026;-73
2022/01/19 14:01:38;;;;;;;14.73;7.70;;;9.50;70.70;;;;;;4974188;28;20038;-72
2022/01/19 14:04:10;;;;;;;10.20;7.57;;;9.40;70.70;;;;;;4974189;28;20526;-76
2022/01/19 14:06:39;;;;;;;14.70;8.43;;;9.40;71.00;;;;;;4974303;28;20022;-77
2022/01/19 14:09:17;;;;;;;18.10;8.50;;;9.40;71.30;;;;;;4974353;28;20019;-77
2022/01/19 14:11:45;;;;;;;13.00;7.23;;;9.40;71.50;;;;;;4974274;28;20030;-77
2022/01/19 14:14:14;;;;;;;11.37;7.87;;;9.40;71.50;;;;;;4974091;28;20038;-76
2022/01/19 14:16:45;;;;;;;8.17;6.47;;;9.40;71.60;;;;;;4974371;28;20038;-76
2022/01/19 14:19:26;;;;;;;11.57;6.77;;;9.30;71.60;;;;;;4974219;28;20439;-75
2022/01/19 14:22:05;;;;;;;16.30;7.17;;;9.30;71.70;;;;;;4973924;28;20023;-76